American Integrity — WDD2875 — position and weather

sailwx.info

Track history (hours):
 
Tides and Currents Weather Stations Pressure Air Temp Water Temp Dewpoint Dewpoint Depression Visibility Wind Speed Wind Dir Waves Ship Positions

American Integrity

Owner: American Steamship Company, Williamsville, NY. More information available from US FCC via Universal Licensing System and Coast Guard Vessel Documentation Center.

Last reported at 2016-Jun-27 09:09 UTC. Time now 2016-Jun-27 09:39 UTC.
Position N 47°03' W 091°22'.

; draft 8 m.

Type: Cargo ship. MMSI: 367120990.

Date/timePositionNaut miles runAvg speedWind from/ knotsBaromVisibWave heightAir tempDewpointWater temp
2016-Jun-27 09:09N 47°03' W 091°22'712.1
2016-Jun-27 08:33N 46°60' W 091°31'1212.0
2016-Jun-27 07:33N 46°53' W 091°46'1212.1
2016-Jun-27 06:33N 46°48' W 092°02'4 4.2
2016-Jun-27 05:33N 46°45' W 092°06'1 0.6
2016-Jun-27 04:33N 46°45' W 092°07'0 0.0
2016-Jun-27 03:33N 46°45' W 092°07'0 0.0
2016-Jun-27 02:33N 46°45' W 092°07'0 0.0
2016-Jun-27 01:34N 46°45' W 092°07'0 0.0
2016-Jun-27 00:34N 46°45' W 092°07'0 0.0
2016-Jun-26 23:33N 46°45' W 092°07'0 0.0
2016-Jun-26 22:33N 46°45' W 092°07'0 0.0
2016-Jun-26 21:34N 46°45' W 092°07'0 0.0
2016-Jun-26 20:34N 46°45' W 092°07'1 1.1
2016-Jun-26 19:33N 46°45' W 092°06'0 0.4
2016-Jun-26 18:33N 46°46' W 092°06'0 0.0
2016-Jun-26 17:33N 46°46' W 092°06'5 5.0
2016-Jun-26 16:33N 46°48' W 092°00'1212.0
2016-Jun-26 15:33N 46°53' W 091°44'5 9.4
2016-Jun-26 15:00N 46°54' W 091°36'6812.5 230 / 251008.810.8 16.6
2016-Jun-26 09:33N 47°16' W 090°01'1212.4
2016-Jun-26 08:33N 47°18' W 089°43'31610.0
2016-Jun-25 01:00N 45°24' W 082°36'   220 / 81017.210.8 16.1
2016-Jun-22 03:00N 47°36' W 087°48'15612.2 350 / 141015.210.8 6.6
2016-Jun-21 14:10N 46°59' W 091°32'712.0
2016-Jun-21 13:33N 46°56' W 091°41'1212.1
2016-Jun-21 12:33N 46°50' W 091°57'7 7.4
2016-Jun-21 11:33N 46°46' W 092°06'1 1.4
2016-Jun-21 10:33N 46°45' W 092°07'0 0.0
2016-Jun-21 09:33N 46°45' W 092°07'0 0.0
2016-Jun-21 08:33N 46°45' W 092°07'0 0.0
2016-Jun-21 07:33N 46°45' W 092°07'0 0.0
2016-Jun-21 05:33N 46°45' W 092°07'0 0.0
2016-Jun-21 04:33N 46°45' W 092°07'0 0.0
2016-Jun-21 03:33N 46°45' W 092°07'0 0.0
2016-Jun-21 02:33N 46°45' W 092°07'0 0.2
2016-Jun-21 01:33N 46°45' W 092°07'1 1.0
2016-Jun-21 00:34N 46°45' W 092°06'3 3.4
2016-Jun-20 23:33N 46°47' W 092°02'1 1.2
2016-Jun-20 22:33N 46°47' W 092°01'0 0.0
2016-Jun-20 21:33N 46°47' W 092°01'0 0.1
2016-Jun-20 20:33N 46°47' W 092°01'0 0.0
2016-Jun-20 19:34N 46°47' W 092°01'0 0.0
2016-Jun-20 18:33N 46°47' W 092°01'0 0.0
2016-Jun-20 17:33N 46°47' W 092°01'0 0.1
2016-Jun-20 16:33N 46°47' W 092°01'2 1.8
2016-Jun-20 15:33N 46°48' W 091°59'1212.2
2016-Jun-20 14:33N 46°55' W 091°44'2515.7
2016-Jun-20 13:00N 47°06' W 091°12'10810.8 270 / 261011.810.8 0.513.3
2016-Jun-20 03:00N 47°30' W 088°36'4113.5 210 / 441007.1 5.4 18.8
2016-Jun-20 00:00N 47°30' W 087°36'15211.0 210 / 221008.410.8 0.519.4
2016-Jun-19 10:13N 46°25' W 084°15'6 8.9
2016-Jun-19 09:33N 46°20' W 084°11'7 6.7
2016-Jun-19 08:33N 46°14' W 084°07'9 9.6
2016-Jun-19 07:33N 46°06' W 084°01'1010.2
2016-Jun-19 06:33N 45°57' W 083°53'1312.9
2016-Jun-19 05:33N 45°46' W 083°44'1313.1
2016-Jun-19 04:33N 45°35' W 083°33'  
Track history (hours):
 
Tides and Currents Weather Stations Pressure Air Temp Water Temp Dewpoint Dewpoint Depression Visibility Wind Speed Wind Dir Waves Ship Positions

American Integrity

Owner: American Steamship Company, Williamsville, NY. More information available from US FCC via Universal Licensing System and Coast Guard Vessel Documentation Center.

Last reported at 2016-Jun-27 09:09 UTC. Time now 2016-Jun-27 09:39 UTC.
Position N 47°03' W 091°22'.

; draft 8 m.

Type: Cargo ship. MMSI: 367120990.

Date/timePositionNaut miles runAvg speedWind from/ knotsBaromVisibWave heightAir tempDewpointWater temp
2016-Jun-27 09:09N 47°03' W 091°22'712.1
2016-Jun-27 08:33N 46°60' W 091°31'1212.0
2016-Jun-27 07:33N 46°53' W 091°46'1212.1
2016-Jun-27 06:33N 46°48' W 092°02'4 4.2
2016-Jun-27 05:33N 46°45' W 092°06'1 0.6
2016-Jun-27 04:33N 46°45' W 092°07'0 0.0
2016-Jun-27 03:33N 46°45' W 092°07'0 0.0
2016-Jun-27 02:33N 46°45' W 092°07'0 0.0
2016-Jun-27 01:34N 46°45' W 092°07'0 0.0
2016-Jun-27 00:34N 46°45' W 092°07'0 0.0
2016-Jun-26 23:33N 46°45' W 092°07'0 0.0
2016-Jun-26 22:33N 46°45' W 092°07'0 0.0
2016-Jun-26 21:34N 46°45' W 092°07'0 0.0
2016-Jun-26 20:34N 46°45' W 092°07'1 1.1
2016-Jun-26 19:33N 46°45' W 092°06'0 0.4
2016-Jun-26 18:33N 46°46' W 092°06'0 0.0
2016-Jun-26 17:33N 46°46' W 092°06'5 5.0
2016-Jun-26 16:33N 46°48' W 092°00'1212.0
2016-Jun-26 15:33N 46°53' W 091°44'5 9.4
2016-Jun-26 15:00N 46°54' W 091°36'6812.5 230 / 251008.810.8 16.6
2016-Jun-26 09:33N 47°16' W 090°01'1212.4
2016-Jun-26 08:33N 47°18' W 089°43'31610.0
2016-Jun-25 01:00N 45°24' W 082°36'   220 / 81017.210.8 16.1
2016-Jun-22 03:00N 47°36' W 087°48'15612.2 350 / 141015.210.8 6.6
2016-Jun-21 14:10N 46°59' W 091°32'712.0
2016-Jun-21 13:33N 46°56' W 091°41'1212.1
2016-Jun-21 12:33N 46°50' W 091°57'7 7.4
2016-Jun-21 11:33N 46°46' W 092°06'1 1.4
2016-Jun-21 10:33N 46°45' W 092°07'0 0.0
2016-Jun-21 09:33N 46°45' W 092°07'0 0.0
2016-Jun-21 08:33N 46°45' W 092°07'0 0.0
2016-Jun-21 07:33N 46°45' W 092°07'0 0.0
2016-Jun-21 05:33N 46°45' W 092°07'0 0.0
2016-Jun-21 04:33N 46°45' W 092°07'0 0.0
2016-Jun-21 03:33N 46°45' W 092°07'0 0.0
2016-Jun-21 02:33N 46°45' W 092°07'0 0.2
2016-Jun-21 01:33N 46°45' W 092°07'1 1.0
2016-Jun-21 00:34N 46°45' W 092°06'3 3.4
2016-Jun-20 23:33N 46°47' W 092°02'1 1.2
2016-Jun-20 22:33N 46°47' W 092°01'0 0.0
2016-Jun-20 21:33N 46°47' W 092°01'0 0.1
2016-Jun-20 20:33N 46°47' W 092°01'0 0.0
2016-Jun-20 19:34N 46°47' W 092°01'0 0.0
2016-Jun-20 18:33N 46°47' W 092°01'0 0.0
2016-Jun-20 17:33N 46°47' W 092°01'0 0.1
2016-Jun-20 16:33N 46°47' W 092°01'2 1.8
2016-Jun-20 15:33N 46°48' W 091°59'1212.2
2016-Jun-20 14:33N 46°55' W 091°44'2515.7
2016-Jun-20 13:00N 47°06' W 091°12'10810.8 270 / 261011.810.8 0.513.3
2016-Jun-20 03:00N 47°30' W 088°36'4113.5 210 / 441007.1 5.4 18.8
2016-Jun-20 00:00N 47°30' W 087°36'15211.0 210 / 221008.410.8 0.519.4
2016-Jun-19 10:13N 46°25' W 084°15'6 8.9
2016-Jun-19 09:33N 46°20' W 084°11'7 6.7
2016-Jun-19 08:33N 46°14' W 084°07'9 9.6
2016-Jun-19 07:33N 46°06' W 084°01'1010.2
2016-Jun-19 06:33N 45°57' W 083°53'1312.9
2016-Jun-19 05:33N 45°46' W 083°44'1313.1
2016-Jun-19 04:33N 45°35' W 083°33'  

Dump ship's entire track history